Time;durP1;ratioP1;P1;durP2;ratioP2;P2;SDS_P1;SDS_P2;PMS_P1;PMS_P2;Temp;Humidity;BMP_temperature;BMP_pressure;BME280_temperature;BME280_humidity;BME280_pressure;Samples;Min_cycle;Max_cycle;Signal;HPM_P1;HPM_P2
2020/12/08 00:00:27;;;;;;;1.83;0.77;;;20.40;62.30;;;;;;5103266;27;20061;-68
2020/12/08 00:02:54;;;;;;;3.10;0.63;;;20.40;62.20;;;;;;5102596;27;20022;-66
2020/12/08 00:05:25;;;;;;;1.67;0.80;;;20.40;62.40;;;;;;5099237;28;20046;-67
2020/12/08 00:07:52;;;;;;;2.28;0.68;;;20.40;62.10;;;;;;5102354;27;20477;-65
2020/12/08 00:10:20;;;;;;;1.08;0.88;;;20.40;62.10;;;;;;5078104;28;20043;-66
2020/12/08 00:12:54;;;;;;;3.80;1.20;;;20.40;62.20;;;;;;5078417;27;20084;-65
2020/12/08 00:15:21;;;;;;;1.50;0.73;;;20.40;62.20;;;;;;5078203;27;20510;-66
2020/12/08 00:17:48;;;;;;;2.58;1.10;;;20.40;62.10;;;;;;5106268;28;20024;-65
2020/12/08 00:20:20;;;;;;;1.88;0.52;;;20.40;62.10;;;;;;5105664;27;20498;-65
2020/12/08 00:22:47;;;;;;;4.65;1.10;;;20.40;62.00;;;;;;5076191;28;20044;-65
2020/12/08 00:25:16;;;;;;;1.60;0.70;;;20.40;62.00;;;;;;5099976;27;20027;-67
2020/12/08 00:27:43;;;;;;;2.65;1.05;;;20.40;62.10;;;;;;5079710;28;20051;-65
2020/12/08 00:30:12;;;;;;;3.25;0.70;;;20.50;62.00;;;;;;5078150;28;20036;-65
2020/12/08 00:32:41;;;;;;;10.73;0.82;;;20.40;62.00;;;;;;5105405;27;20020;-65
2020/12/08 00:35:09;;;;;;;1.83;0.60;;;20.40;61.90;;;;;;5106995;27;20035;-64
2020/12/08 00:37:37;;;;;;;3.50;1.02;;;20.40;61.90;;;;;;5089367;27;20114;-66
2020/12/08 00:40:05;;;;;;;1.38;0.88;;;20.50;62.00;;;;;;5100865;27;20052;-65
2020/12/08 00:42:32;;;;;;;1.05;0.77;;;20.50;62.00;;;;;;5107015;27;20467;-65
2020/12/08 00:44:59;;;;;;;1.13;0.75;;;20.50;62.00;;;;;;5102502;27;20023;-66
2020/12/08 00:47:26;;;;;;;1.35;0.85;;;20.40;62.10;;;;;;5104801;27;20122;-65
2020/12/08 00:49:53;;;;;;;1.65;0.80;;;20.50;62.20;;;;;;5104768;27;20595;-67
2020/12/08 00:52:20;;;;;;;0.85;0.80;;;20.50;62.20;;;;;;5106337;28;20107;-65
2020/12/08 00:54:47;;;;;;;1.52;0.60;;;20.50;62.20;;;;;;5104793;27;20028;-65
2020/12/08 00:57:20;;;;;;;1.88;1.05;;;20.50;62.10;;;;;;5081095;28;20102;-65
2020/12/08 00:59:48;;;;;;;3.28;1.20;;;20.50;62.20;;;;;;5103833;27;20030;-67
2020/12/08 01:02:20;;;;;;;0.50;0.50;;;20.50;62.00;;;;;;5081156;28;20066;-66
2020/12/08 01:04:48;;;;;;;2.95;1.00;;;20.50;61.90;;;;;;5102774;27;20027;-66
2020/12/08 01:07:15;;;;;;;1.63;0.77;;;20.50;61.80;;;;;;5103210;27;20351;-64
2020/12/08 01:09:43;;;;;;;1.17;0.60;;;20.50;62.00;;;;;;5100371;28;20492;-70
2020/12/08 01:12:10;;;;;;;1.60;0.60;;;20.50;62.00;;;;;;5075622;28;20059;-68
2020/12/08 01:14:37;;;;;;;3.25;0.85;;;20.50;61.90;;;;;;5103341;27;20203;-65
2020/12/08 01:17:06;;;;;;;1.50;0.80;;;20.50;62.00;;;;;;5104182;27;20038;-65
2020/12/08 01:19:33;;;;;;;1.55;0.90;;;20.50;62.00;;;;;;5079773;28;20463;-65
2020/12/08 01:22:00;;;;;;;2.08;1.08;;;20.60;62.00;;;;;;5105513;27;20341;-64
2020/12/08 01:24:27;;;;;;;2.33;0.90;;;20.60;62.00;;;;;;5107582;27;20026;-65
2020/12/08 01:26:58;;;;;;;1.92;0.77;;;20.60;62.10;;;;;;5105142;27;20023;-65
2020/12/08 01:29:25;;;;;;;0.73;0.60;;;20.60;61.90;;;;;;5106024;27;20042;-65
2020/12/08 01:31:52;;;;;;;1.65;0.70;;;20.60;62.00;;;;;;5084804;27;20083;-65
2020/12/08 01:34:19;;;;;;;2.15;0.80;;;20.60;62.00;;;;;;5106236;27;20047;-65
2020/12/08 01:36:46;;;;;;;1.67;0.75;;;20.60;61.90;;;;;;5101851;27;20168;-64
2020/12/08 01:39:13;;;;;;;1.65;0.93;;;20.60;61.90;;;;;;5105125;27;20031;-65
2020/12/08 01:41:40;;;;;;;2.78;0.70;;;20.70;61.90;;;;;;5102444;28;20488;-68
2020/12/08 01:44:07;;;;;;;1.90;0.70;;;20.70;61.90;;;;;;5098973;27;20543;-66
2020/12/08 01:46:35;;;;;;;2.05;0.75;;;20.70;61.90;;;;;;5100867;27;20024;-65
2020/12/08 01:49:03;;;;;;;1.15;0.68;;;20.70;61.70;;;;;;5104686;27;20028;-66
2020/12/08 01:51:30;;;;;;;1.88;1.05;;;20.70;61.60;;;;;;5103938;27;20030;-65
2020/12/08 01:53:58;;;;;;;0.73;0.60;;;20.70;61.70;;;;;;5105206;28;20055;-64
2020/12/08 01:56:25;;;;;;;1.50;0.75;;;20.70;61.80;;;;;;5077975;27;20126;-69
2020/12/08 01:58:52;;;;;;;1.90;0.90;;;20.70;61.80;;;;;;5104663;27;20086;-65
2020/12/08 02:01:19;;;;;;;1.27;0.73;;;20.70;61.80;;;;;;5079198;28;20096;-65
2020/12/08 02:03:51;;;;;;;2.63;0.98;;;20.70;61.70;;;;;;5104781;27;20051;-67
2020/12/08 02:06:19;;;;;;;2.80;0.80;;;20.70;61.60;;;;;;5103923;28;20071;-69
2020/12/08 02:08:46;;;;;;;2.25;0.80;;;20.80;61.70;;;;;;5099464;28;20044;-66
2020/12/08 02:11:13;;;;;;;1.85;0.85;;;20.80;61.70;;;;;;5086498;28;20039;-66
2020/12/08 02:13:40;;;;;;;2.45;0.80;;;20.80;61.90;;;;;;5099624;27;20061;-66
2020/12/08 02:16:07;;;;;;;2.88;0.55;;;20.80;61.70;;;;;;5082973;28;20026;-66
2020/12/08 02:18:34;;;;;;;3.42;0.85;;;20.80;61.70;;;;;;5102322;27;20466;-66
2020/12/08 02:21:04;;;;;;;2.47;0.80;;;20.80;61.60;;;;;;5105650;27;20024;-66
2020/12/08 02:23:31;;;;;;;1.30;0.82;;;20.90;61.70;;;;;;5100870;27;20102;-69
2020/12/08 02:26:00;;;;;;;1.77;0.85;;;20.90;61.60;;;;;;5104870;27;20027;-66
2020/12/08 02:28:28;;;;;;;2.22;0.50;;;20.90;61.60;;;;;;5101362;27;20051;-65
2020/12/08 02:30:55;;;;;;;2.40;1.00;;;20.90;61.60;;;;;;5099122;27;20391;-66
2020/12/08 02:33:28;;;;;;;2.50;0.77;;;20.90;61.60;;;;;;5099561;27;20027;-66
2020/12/08 02:35:56;;;;;;;0.93;0.77;;;20.90;61.60;;;;;;5101273;28;20223;-66
2020/12/08 02:38:26;;;;;;;1.05;0.68;;;20.90;61.60;;;;;;5096995;27;20035;-65
2020/12/08 02:40:54;;;;;;;1.40;0.55;;;21.00;61.50;;;;;;5104748;27;20043;-66
2020/12/08 02:43:22;;;;;;;1.42;0.60;;;21.00;61.60;;;;;;5100766;27;20032;-66
2020/12/08 02:45:50;;;;;;;1.90;0.60;;;21.00;61.50;;;;;;5104177;28;20100;-66
2020/12/08 02:48:17;;;;;;;2.38;0.75;;;21.00;61.50;;;;;;5083654;27;20036;-67
2020/12/08 02:50:45;;;;;;;1.75;0.65;;;21.10;62.10;;;;;;5105904;27;20027;-66
2020/12/08 02:53:12;;;;;;;1.65;0.77;;;21.10;61.40;;;;;;5101869;27;20066;-66
2020/12/08 02:55:39;;;;;;;0.88;0.50;;;21.10;61.20;;;;;;5104019;28;20120;-67
2020/12/08 02:58:06;;;;;;;0.55;0.40;;;21.10;61.20;;;;;;5104241;27;20031;-67
2020/12/08 03:00:33;;;;;;;1.13;0.57;;;21.10;61.20;;;;;;5100316;27;20077;-67
2020/12/08 03:03:00;;;;;;;2.28;0.60;;;21.20;61.20;;;;;;5087109;28;20024;-67
2020/12/08 03:05:27;;;;;;;2.35;0.70;;;21.10;61.00;;;;;;5101204;27;20032;-67
2020/12/08 03:07:54;;;;;;;1.13;0.60;;;21.20;61.20;;;;;;5081175;28;20035;-67
2020/12/08 03:10:21;;;;;;;1.35;0.63;;;21.20;61.00;;;;;;5099434;27;20023;-66
2020/12/08 03:12:48;;;;;;;2.03;0.80;;;21.20;61.00;;;;;;5099327;28;20020;-66
2020/12/08 03:15:15;;;;;;;0.80;0.65;;;21.30;61.10;;;;;;5080212;27;20042;-67
2020/12/08 03:17:42;;;;;;;1.17;0.50;;;21.30;61.00;;;;;;5099972;28;20048;-67
2020/12/08 03:20:09;;;;;;;1.27;0.60;;;21.30;61.00;;;;;;5101228;27;20536;-71
2020/12/08 03:22:36;;;;;;;1.27;0.57;;;21.30;60.90;;;;;;5098554;27;20035;-67
2020/12/08 03:25:07;;;;;;;0.98;0.40;;;21.40;60.90;;;;;;5098864;27;20019;-67
2020/12/08 03:27:36;;;;;;;3.78;0.77;;;21.40;60.90;;;;;;5103637;27;20031;-65
2020/12/08 03:30:05;;;;;;;0.82;0.70;;;21.40;60.70;;;;;;5098816;28;20035;-66
2020/12/08 03:32:32;;;;;;;1.23;0.68;;;21.40;60.70;;;;;;5101206;27;20546;-67
2020/12/08 03:34:59;;;;;;;0.60;0.50;;;21.40;60.80;;;;;;5099278;27;20039;-67
2020/12/08 03:37:26;;;;;;;0.95;0.50;;;21.40;60.70;;;;;;5103923;27;20024;-67
2020/12/08 03:39:53;;;;;;;1.45;0.75;;;21.50;60.60;;;;;;5099604;27;20060;-67
2020/12/08 03:42:21;;;;;;;1.50;0.70;;;21.50;60.70;;;;;;5103351;27;20144;-66
2020/12/08 03:44:48;;;;;;;1.02;0.50;;;21.50;60.60;;;;;;5102162;27;20111;-68
2020/12/08 03:47:15;;;;;;;1.52;0.80;;;21.50;60.50;;;;;;5101387;27;20035;-69
2020/12/08 03:49:42;;;;;;;1.17;0.90;;;21.50;60.50;;;;;;5103544;27;20040;-68
2020/12/08 03:52:09;;;;;;;3.05;0.95;;;21.60;60.50;;;;;;5103171;27;20106;-68
2020/12/08 03:54:36;;;;;;;1.58;0.40;;;21.60;60.40;;;;;;5106704;27;20027;-68
2020/12/08 03:57:03;;;;;;;1.80;0.70;;;21.60;60.30;;;;;;5104327;27;20028;-69
2020/12/08 03:59:30;;;;;;;0.68;0.52;;;21.60;60.30;;;;;;5105189;27;20040;-68
2020/12/08 04:01:57;;;;;;;1.90;0.70;;;21.60;60.40;;;;;;5086396;28;20031;-68
2020/12/08 04:04:25;;;;;;;1.45;0.85;;;21.60;60.40;;;;;;5107877;27;20078;-71
2020/12/08 04:06:52;;;;;;;1.45;0.82;;;21.70;60.30;;;;;;5103355;27;20147;-68
2020/12/08 04:09:19;;;;;;;0.93;0.55;;;21.60;60.20;;;;;;5106123;27;20384;-67
2020/12/08 04:11:46;;;;;;;1.95;0.88;;;21.60;60.20;;;;;;5103570;27;20029;-67
2020/12/08 04:14:13;;;;;;;1.35;0.63;;;21.60;60.10;;;;;;5106995;27;20399;-67
2020/12/08 04:16:40;;;;;;;2.15;0.75;;;21.70;60.10;;;;;;5103671;27;20019;-67
2020/12/08 04:19:07;;;;;;;2.97;0.77;;;21.60;60.10;;;;;;5089294;28;20063;-66
2020/12/08 04:21:35;;;;;;;1.17;0.65;;;21.60;60.10;;;;;;5104727;27;20035;-66
2020/12/08 04:24:02;;;;;;;2.67;0.60;;;21.60;60.10;;;;;;5105873;27;20034;-66
2020/12/08 04:26:33;;;;;;;1.35;0.85;;;21.60;60.10;;;;;;5105902;27;20098;-67
2020/12/08 04:29:01;;;;;;;1.02;0.50;;;21.60;60.10;;;;;;5103954;27;20067;-67
2020/12/08 04:31:31;;;;;;;1.33;0.60;;;21.70;60.10;;;;;;5101718;27;20065;-67
2020/12/08 04:33:58;;;;;;;1.05;0.60;;;21.70;60.10;;;;;;5104161;27;20521;-67
2020/12/08 04:36:26;;;;;;;1.02;0.50;;;21.70;60.00;;;;;;5106203;27;20042;-67
2020/12/08 04:38:53;;;;;;;1.08;0.57;;;21.70;60.00;;;;;;5107263;27;20028;-66
2020/12/08 04:41:22;;;;;;;0.55;0.50;;;21.70;60.00;;;;;;5082068;28;20036;-66
2020/12/08 04:43:49;;;;;;;0.90;0.60;;;21.80;60.00;;;;;;5106030;27;20028;-67
2020/12/08 04:46:21;;;;;;;1.45;0.90;;;21.80;60.00;;;;;;5105252;27;20030;-67
2020/12/08 04:48:49;;;;;;;1.85;0.88;;;21.80;59.80;;;;;;5102017;27;20089;-67
2020/12/08 04:51:17;;;;;;;0.47;0.47;;;21.80;60.40;;;;;;5106831;27;20442;-66
2020/12/08 04:53:46;;;;;;;1.73;1.00;;;21.80;59.80;;;;;;5085522;28;20502;-66
2020/12/08 04:56:14;;;;;;;2.67;0.80;;;21.80;59.70;;;;;;5105706;27;20479;-66
2020/12/08 04:58:48;;;;;;;1.50;0.65;;;21.80;59.80;;;;;;5102818;27;20039;-66
2020/12/08 05:01:28;;;;;;;0.40;0.40;;;21.80;59.70;;;;;;5106774;27;20351;-65
2020/12/08 05:04:03;;;;;;;1.98;0.60;;;21.80;59.70;;;;;;5103972;27;20023;-66
2020/12/08 05:06:30;;;;;;;1.52;0.77;;;21.80;59.70;;;;;;5106684;27;20159;-66
2020/12/08 05:09:13;;;;;;;1.48;0.73;;;21.80;59.70;;;;;;5103602;27;20040;-66
2020/12/08 05:11:40;;;;;;;1.60;0.50;;;21.80;59.70;;;;;;5106092;27;20483;-65
2020/12/08 05:14:07;;;;;;;1.65;0.60;;;21.80;59.60;;;;;;5100623;28;20036;-66
2020/12/08 05:16:34;;;;;;;1.65;0.57;;;21.80;59.70;;;;;;5104995;27;20024;-65
2020/12/08 05:19:11;;;;;;;1.70;0.50;;;21.80;59.70;;;;;;5101922;27;20032;-66
2020/12/08 05:21:51;;;;;;;0.63;0.60;;;21.80;59.60;;;;;;5104303;27;20789;-66
2020/12/08 05:24:34;;;;;;;2.67;0.65;;;21.80;60.50;;;;;;5100282;27;20039;-66
2020/12/08 05:27:03;;;;;;;1.33;0.85;;;21.80;59.70;;;;;;5103597;27;20023;-66
2020/12/08 05:29:31;;;;;;;4.85;0.85;;;21.80;59.60;;;;;;5101162;27;20051;-66
2020/12/08 05:32:19;;;;;;;1.33;0.68;;;21.80;59.60;;;;;;5103769;27;20037;-66
2020/12/08 05:34:51;;;;;;;1.08;0.40;;;21.80;59.40;;;;;;5085512;27;20039;-66
2020/12/08 05:37:20;;;;;;;1.73;0.60;;;21.80;59.40;;;;;;5084994;28;20028;-66
2020/12/08 05:39:48;;;;;;;3.08;0.82;;;21.70;59.30;;;;;;5104854;27;20244;-66
2020/12/08 05:42:19;;;;;;;0.77;0.50;;;21.70;59.30;;;;;;5088924;28;20037;-66
2020/12/08 05:44:49;;;;;;;;;;;21.80;59.30;;;;;;5104534;27;20087;-65
2020/12/08 05:47:21;;;;;;;1.00;0.47;;;21.70;59.30;;;;;;5105366;27;19912;-66
2020/12/08 05:50:02;;;;;;;0.73;0.70;;;21.70;59.20;;;;;;5106619;27;20039;-66
2020/12/08 05:52:33;;;;;;;1.47;0.70;;;21.70;59.30;;;;;;5074239;28;20038;-66
2020/12/08 05:55:30;;;;;;;1.23;0.43;;;21.70;59.30;;;;;;5082134;27;20054;-66
2020/12/08 05:58:09;;;;;;;1.63;0.70;;;21.80;59.40;;;;;;5099886;27;20107;-65
2020/12/08 06:00:37;;;;;;;0.57;0.50;;;21.70;59.40;;;;;;5099084;27;20032;-67
2020/12/08 06:03:15;;;;;;;1.25;0.70;;;21.70;59.40;;;;;;5104129;27;20027;-66
2020/12/08 06:05:46;;;;;;;1.02;0.77;;;21.70;59.40;;;;;;5098276;27;20062;-65
2020/12/08 06:08:16;;;;;;;1.75;0.50;;;21.70;59.40;;;;;;5104731;27;20036;-66
2020/12/08 06:10:54;;;;;;;2.33;0.50;;;21.70;59.40;;;;;;5103373;27;20108;-65
2020/12/08 06:13:32;;;;;;;1.90;0.63;;;21.70;59.40;;;;;;5103652;28;20063;-66
2020/12/08 06:16:01;;;;;;;2.05;0.65;;;21.70;59.30;;;;;;5101085;27;20050;-66
2020/12/08 06:18:32;;;;;;;3.15;0.70;;;21.70;59.50;;;;;;5103380;27;20488;-66
2020/12/08 06:21:02;;;;;;;1.20;0.63;;;21.70;59.50;;;;;;5101331;27;20035;-66
2020/12/08 06:23:29;;;;;;;1.13;0.43;;;21.70;59.60;;;;;;5101634;27;20028;-66
2020/12/08 06:25:57;;;;;;;0.77;0.47;;;21.70;59.50;;;;;;5102876;28;20075;-66
2020/12/08 06:28:25;;;;;;;1.02;0.50;;;21.70;59.40;;;;;;5103130;27;20032;-66
2020/12/08 06:31:06;;;;;;;0.82;0.50;;;21.70;59.40;;;;;;5105640;27;20042;-66
2020/12/08 06:33:55;;;;;;;1.45;0.68;;;21.70;59.60;;;;;;5100095;27;20110;-66
2020/12/08 06:36:24;;;;;;;0.93;0.70;;;21.70;59.60;;;;;;5101979;27;20027;-65
2020/12/08 06:39:04;;;;;;;2.08;0.65;;;21.70;59.40;;;;;;5073645;28;20034;-66
2020/12/08 06:41:36;;;;;;;1.02;0.40;;;21.70;59.40;;;;;;5100547;27;20026;-67
2020/12/08 06:44:22;;;;;;;1.75;0.85;;;21.70;59.50;;;;;;5101973;27;20035;-67
2020/12/08 06:47:01;;;;;;;0.98;0.55;;;21.70;59.50;;;;;;5086001;27;20519;-67
2020/12/08 06:49:35;;;;;;;2.08;0.40;;;21.70;59.40;;;;;;5102424;27;20036;-67
2020/12/08 06:52:03;;;;;;;1.38;0.75;;;21.70;59.60;;;;;;5104452;27;20826;-66
2020/12/08 06:54:30;;;;;;;1.05;0.60;;;21.70;60.20;;;;;;5100561;27;20176;-68
2020/12/08 06:57:02;;;;;;;1.42;0.73;;;21.70;59.50;;;;;;5103880;27;20042;-67
2020/12/08 06:59:29;;;;;;;1.20;0.60;;;21.70;59.40;;;;;;5102156;27;20085;-68
2020/12/08 07:01:59;;;;;;;1.58;0.85;;;21.70;59.40;;;;;;5105268;27;20024;-67
2020/12/08 07:04:30;;;;;;;2.15;0.80;;;21.70;59.50;;;;;;5101371;27;20110;-67
2020/12/08 07:07:00;;;;;;;1.25;0.60;;;21.70;59.30;;;;;;5104403;27;20483;-69
2020/12/08 07:09:37;;;;;;;2.90;0.80;;;21.70;59.30;;;;;;5079394;27;20424;-66
2020/12/08 07:12:04;;;;;;;1.80;0.65;;;21.70;59.30;;;;;;5103031;27;20088;-66
2020/12/08 07:14:36;;;;;;;3.40;0.85;;;21.70;59.30;;;;;;5100907;27;20385;-67
2020/12/08 07:17:03;;;;;;;;;;;21.60;59.50;;;;;;5104407;27;20089;-66
2020/12/08 07:19:30;;;;;;;3.13;0.70;;;21.50;59.60;;;;;;5082577;28;19914;-66
2020/12/08 07:21:59;;;;;;;4.10;0.70;;;21.50;59.60;;;;;;5103690;27;20023;-66
2020/12/08 07:24:27;;;;;;;1.83;0.57;;;21.40;59.70;;;;;;5102117;27;20115;-71
2020/12/08 07:27:01;;;;;;;2.97;0.80;;;21.40;60.10;;;;;;5105512;27;20491;-66
2020/12/08 07:29:28;;;;;;;1.45;0.75;;;21.40;60.10;;;;;;5103031;27;20073;-66
2020/12/08 07:31:56;;;;;;;0.65;0.60;;;21.40;60.10;;;;;;5106884;27;20024;-66
2020/12/08 07:34:23;;;;;;;1.92;0.70;;;21.30;60.20;;;;;;5103727;27;20020;-66
2020/12/08 07:36:50;;;;;;;1.95;1.25;;;21.30;60.30;;;;;;5107006;27;20517;-66
2020/12/08 07:39:19;;;;;;;1.58;0.60;;;21.30;60.40;;;;;;5104370;27;20379;-66
2020/12/08 07:41:47;;;;;;;1.23;0.60;;;21.30;60.80;;;;;;5107446;27;20247;-66
2020/12/08 07:44:19;;;;;;;0.70;0.50;;;21.30;60.80;;;;;;5104903;27;20119;-66
2020/12/08 07:46:50;;;;;;;1.58;0.65;;;21.30;60.70;;;;;;5104315;27;20031;-66
2020/12/08 07:49:18;;;;;;;1.92;0.88;;;21.30;60.60;;;;;;5107320;27;20042;-69
2020/12/08 07:51:50;;;;;;;1.33;0.70;;;21.30;60.50;;;;;;5105130;28;20020;-66
2020/12/08 07:54:18;;;;;;;1.48;0.60;;;21.30;61.30;;;;;;5091643;27;20135;-65
2020/12/08 07:56:45;;;;;;;1.55;0.90;;;21.20;60.80;;;;;;5104710;27;20066;-66
2020/12/08 07:59:12;;;;;;;1.05;0.52;;;21.30;60.70;;;;;;5091092;28;20085;-67
2020/12/08 08:01:44;;;;;;;0.98;0.52;;;21.20;60.70;;;;;;5106416;27;20035;-66
2020/12/08 08:04:12;;;;;;;2.22;0.70;;;21.30;60.80;;;;;;5106678;27;20016;-66
2020/12/08 08:06:40;;;;;;;1.83;0.73;;;21.30;61.00;;;;;;5109680;27;20050;-67
2020/12/08 08:09:07;;;;;;;2.88;1.25;;;21.40;61.00;;;;;;5106232;27;20073;-69
2020/12/08 08:11:36;;;;;;;2.72;0.70;;;21.30;60.80;;;;;;5103413;27;20061;-67
2020/12/08 08:14:07;;;;;;;1.58;0.68;;;21.40;61.00;;;;;;5087196;28;20019;-67
2020/12/08 08:16:34;;;;;;;2.60;0.80;;;21.30;61.10;;;;;;5101806;27;20055;-67
2020/12/08 08:19:04;;;;;;;4.85;0.68;;;21.40;61.10;;;;;;5105785;27;20126;-67
2020/12/08 08:21:32;;;;;;;0.68;0.50;;;21.40;61.10;;;;;;5102856;27;20521;-67
2020/12/08 08:24:00;;;;;;;2.97;1.30;;;21.30;61.10;;;;;;5105963;27;20023;-67
2020/12/08 08:26:28;;;;;;;1.27;0.88;;;21.30;61.30;;;;;;5103097;27;20077;-67
2020/12/08 08:28:55;;;;;;;1.75;0.65;;;21.40;61.30;;;;;;5086926;28;20031;-66
2020/12/08 08:31:25;;;;;;;2.38;1.15;;;21.40;61.30;;;;;;5082822;28;20457;-67
2020/12/08 08:33:52;;;;;;;0.82;0.80;;;21.40;61.20;;;;;;5103264;27;20204;-67
2020/12/08 08:36:19;;;;;;;1.80;0.88;;;21.40;61.20;;;;;;5102323;27;20023;-67
2020/12/08 08:38:47;;;;;;;1.33;0.70;;;21.40;61.10;;;;;;5103416;27;20023;-67
2020/12/08 08:41:14;;;;;;;1.75;0.70;;;21.40;61.20;;;;;;5103794;27;20474;-67
2020/12/08 08:43:41;;;;;;;1.80;0.82;;;21.40;61.10;;;;;;5102336;27;20034;-67
2020/12/08 08:46:09;;;;;;;1.98;0.90;;;21.40;61.10;;;;;;5105311;27;20028;-67
2020/12/08 08:48:37;;;;;;;1.52;0.93;;;21.40;61.00;;;;;;5106303;27;20142;-67
2020/12/08 08:51:04;;;;;;;2.20;0.95;;;21.40;60.90;;;;;;5106271;27;20110;-68
2020/12/08 08:53:31;;;;;;;2.97;1.00;;;21.40;60.70;;;;;;5102445;27;20074;-66
2020/12/08 08:55:59;;;;;;;2.08;0.95;;;21.40;60.60;;;;;;5105517;27;20470;-72
2020/12/08 08:58:26;;;;;;;1.48;0.73;;;21.30;60.70;;;;;;5103740;27;20092;-69
2020/12/08 09:00:53;;;;;;;2.75;0.90;;;21.30;60.80;;;;;;5104741;27;20032;-66
2020/12/08 09:03:20;;;;;;;1.88;0.55;;;21.40;60.80;;;;;;5101838;27;20027;-66
2020/12/08 09:05:48;;;;;;;2.90;0.80;;;21.40;60.90;;;;;;5104760;27;20027;-67
2020/12/08 09:08:16;;;;;;;0.80;0.60;;;21.30;60.70;;;;;;5100310;27;20136;-67
2020/12/08 09:10:43;;;;;;;0.77;0.50;;;21.40;60.90;;;;;;5106173;28;20491;-66
2020/12/08 09:13:12;;;;;;;1.45;0.70;;;21.30;60.80;;;;;;5078276;27;20073;-65
2020/12/08 09:15:44;;;;;;;2.67;1.00;;;21.30;60.90;;;;;;5078687;27;20027;-66
2020/12/08 09:18:12;;;;;;;2.25;0.70;;;21.30;61.10;;;;;;5097048;27;20073;-66
2020/12/08 09:20:40;;;;;;;1.77;0.93;;;21.40;61.00;;;;;;5097514;28;20110;-65
2020/12/08 09:23:10;;;;;;;1.25;0.80;;;21.40;61.20;;;;;;5079188;28;20028;-67
2020/12/08 09:25:39;;;;;;;2.08;0.80;;;21.40;60.90;;;;;;5098667;27;20451;-67
2020/12/08 09:28:06;;;;;;;1.92;0.60;;;21.30;61.00;;;;;;5100649;27;20031;-66
2020/12/08 09:30:33;;;;;;;1.92;0.70;;;21.30;61.00;;;;;;5096705;27;20115;-65
2020/12/08 09:33:01;;;;;;;1.77;0.80;;;21.30;61.10;;;;;;5102003;27;20102;-65
2020/12/08 09:35:28;;;;;;;2.30;0.88;;;21.40;61.20;;;;;;5097888;28;20028;-66
2020/12/08 09:37:56;;;;;;;1.88;0.90;;;21.30;61.10;;;;;;5101067;27;20487;-67
2020/12/08 09:40:23;;;;;;;1.23;0.57;;;21.30;61.20;;;;;;5097215;27;20507;-66
2020/12/08 09:42:51;;;;;;;2.40;0.88;;;21.30;61.00;;;;;;5100612;27;20023;-66
2020/12/08 09:45:18;;;;;;;0.70;0.70;;;21.30;61.60;;;;;;5098391;27;20031;-66
2020/12/08 09:47:47;;;;;;;2.05;0.80;;;21.30;61.10;;;;;;5100423;27;20054;-66
2020/12/08 09:50:14;;;;;;;2.10;0.95;;;21.30;61.10;;;;;;5079769;28;20043;-66
2020/12/08 09:52:42;;;;;;;1.58;0.90;;;21.30;61.20;;;;;;5083099;28;20125;-66
2020/12/08 09:55:09;;;;;;;1.20;0.60;;;21.30;61.10;;;;;;5097617;28;20055;-68
2020/12/08 09:57:36;;;;;;;1.40;0.60;;;21.20;61.10;;;;;;5099416;27;20088;-66
2020/12/08 10:00:06;;;;;;;2.67;0.80;;;21.20;61.30;;;;;;5077829;28;20401;-69
2020/12/08 10:02:33;;;;;;;3.55;1.15;;;21.20;61.30;;;;;;5101160;27;20329;-67
2020/12/08 10:05:01;;;;;;;2.58;0.80;;;21.20;61.30;;;;;;5097888;27;20035;-66
2020/12/08 10:07:29;;;;;;;1.67;0.80;;;21.30;61.20;;;;;;5101241;27;20066;-68
2020/12/08 10:09:59;;;;;;;2.72;0.70;;;21.30;61.10;;;;;;5099446;28;20196;-67
2020/12/08 10:12:27;;;;;;;1.13;0.40;;;21.30;61.10;;;;;;5098011;28;20027;-67
2020/12/08 10:14:54;;;;;;;2.25;0.90;;;21.30;61.00;;;;;;5098554;27;20523;-66
2020/12/08 10:17:22;;;;;;;2.05;0.90;;;21.30;60.90;;;;;;5096635;28;20027;-67
2020/12/08 10:19:49;;;;;;;1.45;0.70;;;21.40;60.90;;;;;;5078455;28;20523;-66
2020/12/08 10:22:17;;;;;;;2.78;0.75;;;21.40;60.70;;;;;;5095546;28;20039;-67
2020/12/08 10:24:44;;;;;;;1.30;0.70;;;21.40;60.70;;;;;;5079470;28;20115;-66
2020/12/08 10:27:12;;;;;;;3.47;0.75;;;21.40;60.50;;;;;;5096311;27;20035;-67
2020/12/08 10:29:39;;;;;;;2.97;0.90;;;21.40;60.50;;;;;;5098347;27;20119;-67
2020/12/08 10:32:07;;;;;;;2.58;1.05;;;21.40;60.40;;;;;;5074115;27;20031;-66
2020/12/08 10:34:34;;;;;;;1.88;0.90;;;21.40;60.30;;;;;;5098505;27;20154;-66
2020/12/08 10:37:02;;;;;;;2.90;0.90;;;21.40;60.40;;;;;;5096060;27;20034;-66
2020/12/08 10:39:29;;;;;;;3.75;1.45;;;21.40;60.40;;;;;;5097569;28;20532;-67
2020/12/08 10:41:57;;;;;;;2.45;0.68;;;21.40;60.40;;;;;;5095721;28;20024;-67
2020/12/08 10:44:25;;;;;;;1.10;0.82;;;21.40;60.30;;;;;;5100321;27;20068;-67
2020/12/08 10:46:53;;;;;;;1.90;0.68;;;21.40;60.30;;;;;;5095175;27;20028;-67
2020/12/08 10:49:24;;;;;;;1.60;0.80;;;21.40;60.30;;;;;;5098311;27;20154;-66
2020/12/08 10:51:52;;;;;;;3.20;0.82;;;21.40;60.30;;;;;;5097340;27;20035;-67
2020/12/08 10:54:20;;;;;;;1.52;0.70;;;21.40;60.20;;;;;;5100486;27;20038;-67
2020/12/08 10:56:55;;;;;;;3.08;0.90;;;21.40;60.20;;;;;;5096980;28;20543;-67
2020/12/08 10:59:22;;;;;;;2.17;0.73;;;21.40;60.10;;;;;;5098885;27;20038;-67
2020/12/08 11:01:49;;;;;;;1.77;0.70;;;21.40;60.10;;;;;;5098870;27;20019;-67
2020/12/08 11:04:16;;;;;;;1.65;0.73;;;21.40;60.10;;;;;;5073872;28;20315;-67
2020/12/08 11:06:45;;;;;;;1.83;0.70;;;21.40;60.10;;;;;;5098053;27;20123;-67
2020/12/08 11:09:13;;;;;;;2.13;0.93;;;21.30;60.00;;;;;;5095585;27;20046;-67
2020/12/08 11:11:44;;;;;;;1.58;0.85;;;21.30;60.00;;;;;;5059777;28;20757;-67
2020/12/08 11:14:11;;;;;;;1.02;0.73;;;21.30;60.10;;;;;;5069908;28;20480;-67
2020/12/08 11:16:39;;;;;;;1.73;0.80;;;21.40;60.10;;;;;;5078836;28;20039;-67
2020/12/08 11:19:06;;;;;;;1.55;0.85;;;21.40;59.90;;;;;;5077950;28;20055;-67
2020/12/08 11:21:36;;;;;;;2.28;0.93;;;21.40;59.90;;;;;;5077142;28;20032;-67
2020/12/08 11:24:03;;;;;;;1.45;0.70;;;21.30;59.80;;;;;;5074247;28;20024;-67
2020/12/08 11:26:31;;;;;;;1.38;0.90;;;21.30;59.80;;;;;;5078373;28;20078;-67
2020/12/08 11:29:02;;;;;;;1.42;0.77;;;21.30;60.10;;;;;;5075445;28;20361;-67
2020/12/08 11:31:30;;;;;;;1.23;0.80;;;21.30;59.90;;;;;;5078861;28;20114;-67
2020/12/08 11:33:58;;;;;;;1.60;0.70;;;21.30;60.00;;;;;;5075694;28;20070;-67
2020/12/08 11:36:26;;;;;;;0.93;0.80;;;21.30;60.00;;;;;;5077232;28;20035;-67
2020/12/08 11:38:53;;;;;;;1.80;0.70;;;21.30;59.80;;;;;;5059951;28;20298;-67
2020/12/08 11:41:21;;;;;;;1.02;0.80;;;21.30;60.10;;;;;;5081667;28;20028;-67
2020/12/08 11:43:48;;;;;;;1.85;1.10;;;21.30;59.70;;;;;;5082524;28;20028;-67
2020/12/08 11:46:15;;;;;;;0.90;0.75;;;21.30;59.60;;;;;;5083349;28;20024;-67
2020/12/08 11:48:43;;;;;;;1.05;0.90;;;21.30;59.60;;;;;;5083462;28;20043;-67
2020/12/08 11:51:11;;;;;;;1.50;0.70;;;21.30;59.60;;;;;;5063059;28;20035;-67
2020/12/08 11:53:38;;;;;;;2.20;1.00;;;21.30;59.70;;;;;;5079470;28;20113;-68
2020/12/08 11:56:05;;;;;;;1.80;0.98;;;21.20;59.60;;;;;;5079310;28;20060;-67
2020/12/08 11:58:32;;;;;;;2.10;1.20;;;21.20;59.70;;;;;;5083043;28;20040;-67
2020/12/08 12:01:00;;;;;;;2.25;1.10;;;21.20;59.70;;;;;;5081405;28;20059;-66
2020/12/08 12:03:27;;;;;;;1.58;1.08;;;21.20;59.80;;;;;;5078552;28;20032;-66
2020/12/08 12:05:54;;;;;;;1.70;1.30;;;21.20;59.70;;;;;;5074087;28;20418;-66
2020/12/08 12:08:22;;;;;;;1.65;1.30;;;21.10;59.60;;;;;;5083060;28;20040;-66
2020/12/08 12:10:49;;;;;;;2.85;1.67;;;21.10;59.80;;;;;;5079260;28;20164;-67
2020/12/08 12:13:17;;;;;;;2.90;1.35;;;21.10;59.80;;;;;;5084672;28;20031;-67
2020/12/08 12:15:44;;;;;;;5.45;1.92;;;21.10;59.80;;;;;;5054256;28;20085;-68
2020/12/08 12:18:11;;;;;;;1.50;1.40;;;21.10;59.90;;;;;;5087241;28;20028;-67
2020/12/08 12:20:39;;;;;;;2.15;1.48;;;21.10;59.80;;;;;;5081375;28;20344;-67
2020/12/08 12:23:07;;;;;;;3.95;1.83;;;21.10;59.90;;;;;;5056401;28;20035;-67
2020/12/08 12:25:34;;;;;;;2.60;1.70;;;21.00;59.80;;;;;;5083271;28;20028;-67
2020/12/08 12:28:01;;;;;;;3.72;1.92;;;21.10;59.90;;;;;;5084728;28;20062;-67
2020/12/08 12:30:29;;;;;;;2.95;1.58;;;21.00;59.70;;;;;;5059583;28;20036;-66
2020/12/08 12:32:56;;;;;;;2.50;1.58;;;21.00;59.80;;;;;;5081114;28;20028;-67
2020/12/08 12:35:23;;;;;;;3.28;1.95;;;21.00;59.90;;;;;;5086444;28;20054;-68
2020/12/08 12:37:50;;;;;;;2.58;1.65;;;21.00;60.00;;;;;;5084140;28;20359;-67
2020/12/08 12:40:18;;;;;;;1.77;1.33;;;21.00;60.00;;;;;;5089106;28;20016;-67
2020/12/08 12:42:45;;;;;;;2.92;1.58;;;21.00;60.00;;;;;;5080240;28;20038;-67
2020/12/08 12:45:12;;;;;;;2.20;1.63;;;20.90;60.00;;;;;;5084762;28;20350;-67
2020/12/08 12:47:39;;;;;;;2.35;1.70;;;20.90;60.00;;;;;;5082875;28;20092;-68
2020/12/08 12:50:07;;;;;;;1.48;1.33;;;20.90;60.00;;;;;;5086150;28;20040;-67
2020/12/08 12:52:34;;;;;;;1.95;1.67;;;20.90;60.00;;;;;;5058420;28;20101;-67
2020/12/08 12:55:02;;;;;;;2.30;1.58;;;20.90;60.10;;;;;;5067574;28;20039;-69